Latest Weather Observations for Roseworthy

IDS60901

Issued at 10:51 pm CDT Thursday 18 December 2014 (issued every 10 minutes, with the page automatically refreshed every 10 minutes)

About weather observations | Map of Adelaide area stations | Latest observations for Adelaide area | Other Formats
Station Details ID: 023122 Name: ROSEWORTHY AWS Lat: -34.51 Lon: 138.68 Height: 65.0 m
Data from the previous 72 hours. | See also: Recent months at Roseworthy
Date/Time
CDT
Tmp

°C
App
Tmp
°C
Dew
Point
°C
Rel
Hum
%
Delta-T

°C
Wind Press
QNH
hPa
Press
MSL
hPa
Rain
since
9 am
mm
Dir
 
Spd
km/h
Gust
km/h
Spd
kts
Gust
kts
18/10:30pm 16.1 13.4 7.3 56 4.4 SSW 11 15 6 8 1016.5 - 0.0
18/10:00pm 15.5 12.4 7.3 58 4.1 SSW 13 17 7 9 1016.4 - 0.0
18/09:30pm 16.4 12.5 7.3 55 4.5 SSW 17 20 9 11 1016.0 - 0.0
18/09:00pm 16.9 12.8 7.8 55 4.6 SSW 19 24 10 13 1015.9 1015.8 0.0
18/08:30pm 17.4 13.5 8.8 57 4.5 SW 19 24 10 13 1015.4 - 0.0
18/08:00pm 18.3 14.1 9.6 57 4.6 SW 22 32 12 17 1015.1 - 0.0
18/07:30pm 19.1 13.7 9.6 54 5.0 SW 28 37 15 20 1014.7 - 0.0
18/07:00pm 20.1 14.3 9.4 50 5.7 SW 30 41 16 22 1014.3 - 0.0
18/06:30pm 20.6 14.4 7.9 44 6.6 SSW 30 41 16 22 1013.8 - 0.0
18/06:00pm 21.8 14.6 5.7 35 8.1 SW 33 43 18 23 1013.5 1013.3 0.0
18/05:30pm 21.8 14.1 7.2 39 7.5 SW 37 50 20 27 1013.1 - 0.0
18/05:00pm 22.3 15.4 7.3 38 7.8 SW 33 46 18 25 1012.8 - 0.0
18/04:30pm 22.9 16.0 7.4 37 8.1 SW 33 46 18 25 1012.7 - 0.0
18/04:00pm 23.2 16.5 8.1 38 8.0 SW 33 46 18 25 1012.7 - 0.0
18/03:30pm 23.0 16.7 9.0 41 7.5 SSW 32 50 17 27 1012.7 - 0.0
18/03:00pm 21.9 16.0 9.1 44 6.8 SW 30 46 16 25 1012.5 1012.3 0.0
18/02:57pm 22.8 17.5 9.9 44 7.0 SW 28 46 15 25 1012.6 - 0.0
18/02:30pm 23.1 17.2 10.5 45 7.0 SW 32 46 17 25 1012.3 - 0.0
18/02:00pm 22.0 16.7 11.1 50 6.0 WSW 30 48 16 26 1012.2 - 0.0
18/01:59pm 21.4 15.7 9.9 48 6.2 WSW 30 48 16 26 1012.3 - 0.0
18/01:30pm 22.8 16.6 9.9 44 7.0 WSW 33 46 18 25 1012.0 - 0.0
18/01:00pm 21.8 16.2 10.3 48 6.3 WSW 30 44 16 24 1012.3 - 0.0
18/12:30pm 19.8 14.1 11.0 57 4.8 SSW 32 44 17 24 1012.3 - 0.0
18/12:00pm 21.9 15.4 8.8 43 7.0 WSW 33 44 18 24 1012.0 1011.8 0.0
18/11:30am 21.8 15.3 8.3 42 7.1 W 32 46 17 25 1011.7 - 0.0
18/11:00am 22.0 15.3 8.2 41 7.3 W 33 46 18 25 1011.8 - 0.0
18/10:30am 21.3 15.2 8.2 43 6.9 W 30 41 16 22 1011.6 - 0.0
18/10:00am 21.6 15.9 8.5 43 6.9 W 28 39 15 21 1011.5 - 0.0
18/09:30am 19.9 13.7 7.9 46 6.2 W 30 35 16 19 1011.5 - 0.0
18/09:00am 19.8 13.5 7.5 45 6.3 W 30 37 16 20 1011.2 1011.0 0.0
18/08:30am 18.3 14.4 9.6 57 4.6 W 20 28 11 15 1011.0 - 0.0
18/08:00am 17.8 14.0 9.7 59 4.3 WNW 20 26 11 14 1010.8 - 0.0
18/07:30am 15.5 12.8 9.0 65 3.3 NW 13 17 7 9 1010.5 - 0.0
18/07:00am 12.6 10.2 8.7 77 2.0 N 11 15 6 8 1010.3 - 0.0
18/06:30am 10.4 7.4 7.5 82 1.4 NNW 13 15 7 8 1009.8 - 0.0
18/06:00am 9.1 5.8 6.5 84 1.2 NNW 13 15 7 8 1009.6 1009.4 0.0
18/05:30am 9.7 5.8 7.0 83 1.3 N 17 19 9 10 1009.2 - 0.0
18/05:00am 9.7 6.2 7.1 84 1.2 NNW 15 17 8 9 1009.0 - 0.0
18/04:30am 10.2 6.7 7.4 83 1.3 N 15 17 8 9 1008.5 - 0.0
18/04:00am 10.6 6.9 8.0 84 1.3 NNE 17 19 9 10 1008.2 - 0.0
18/03:30am 9.4 7.0 6.8 84 1.2 N 9 13 5 7 1008.2 - 0.0
18/03:00am 9.3 6.0 6.4 82 1.4 N 13 15 7 8 1007.8 1007.6 0.0
18/02:30am 9.3 6.7 6.2 81 1.4 N 9 11 5 6 1008.1 - 0.0
18/02:00am 9.8 7.7 6.5 80 1.5 NNE 7 7 4 4 1008.1 - 0.0
18/01:30am 9.2 6.9 5.0 75 1.9 NNE 6 7 3 4 1008.0 - 0.0
18/01:00am 9.8 7.7 5.6 75 1.9 NE 6 7 3 4 1008.2 - 0.0
18/12:30am 10.1 9.0 5.1 71 2.3 CALM 0 0 0 0 1008.5 - 0.0
18/12:00am 13.5 11.8 7.5 67 3.0 SW 6 7 3 4 1008.9 1008.7 0.0
 
Date/Time
CDT
Tmp

°C
App
Tmp
°C
Dew
Point
°C
Rel
Hum
%
Delta-T

°C
Wind Press
QNH
hPa
Press
MSL
hPa
Rain
since
9 am
mm
Dir
 
Spd
km/h
Gust
km/h
Spd
kts
Gust
kts
17/11:30pm 14.4 11.8 7.7 64 3.3 WSW 11 13 6 7 1009.0 - 0.0
17/11:00pm 14.6 11.9 7.4 62 3.6 WSW 11 13 6 7 1009.0 - 0.0
17/10:30pm 13.5 10.2 4.6 55 4.1 W 11 11 6 6 1008.7 - 0.0
17/10:00pm 14.6 11.5 3.4 47 5.1 WSW 9 11 5 6 1008.5 - 0.0
17/09:30pm 16.4 12.8 2.8 40 6.2 SW 11 13 6 7 1008.3 - 0.0
17/09:00pm 17.4 14.4 2.2 36 6.9 SW 7 9 4 5 1007.9 1007.7 0.0
17/08:30pm 18.8 15.8 1.8 32 7.7 SSW 7 9 4 5 1007.5 - 0.0
17/08:00pm 20.6 16.9 2.4 30 8.5 SSW 11 15 6 8 1007.1 - 0.0
17/07:30pm 21.2 16.9 3.0 30 8.6 S 15 20 8 11 1006.9 - 0.0
17/07:00pm 21.5 17.2 3.2 30 8.7 S 15 22 8 12 1006.7 - 0.0
17/06:30pm 21.6 17.7 3.3 30 8.8 SSW 13 19 7 10 1006.9 - 0.0
17/06:00pm 23.1 17.8 3.1 27 9.7 WSW 20 28 11 15 1007.0 1006.9 0.0
17/05:30pm 23.4 18.2 3.4 27 9.7 WSW 20 32 11 17 1007.0 - 0.0
17/05:00pm 24.2 19.3 4.0 27 10.0 SW 19 26 10 14 1007.2 - 0.0
17/04:30pm 23.9 18.7 2.7 25 10.2 WSW 19 32 10 17 1007.5 - 0.0
17/04:00pm 24.1 18.7 2.3 24 10.4 W 20 28 11 15 1007.4 - 0.0
17/03:30pm 24.3 19.9 2.5 24 10.5 SW 15 24 8 13 1007.8 - 0.0
17/03:00pm 24.1 20.2 3.4 26 10.1 WSW 13 28 7 15 1007.9 1007.7 0.0
17/02:30pm 22.5 17.8 3.1 28 9.3 SSW 17 32 9 17 1008.4 - 0.0
17/02:00pm 23.6 18.9 5.0 30 9.3 WSW 19 30 10 16 1008.7 - 0.0
17/01:30pm 22.8 18.4 4.8 31 8.9 SW 17 32 9 17 1008.9 - 0.0
17/01:00pm 21.6 17.9 4.7 33 8.3 NW 13 20 7 11 1009.2 - 0.0
17/12:30pm 21.5 17.9 5.0 34 8.2 SW 13 20 7 11 1009.7 - 0.0
17/12:00pm 20.3 16.5 3.9 34 7.9 W 13 20 7 11 1010.0 1009.8 0.0
17/11:30am 20.4 17.5 4.4 35 7.8 N 9 13 5 7 1010.3 - 0.0
17/11:00am 19.4 17.0 5.1 39 7.0 SE 7 13 4 7 1010.5 - 0.0
17/10:30am 19.3 16.0 4.3 37 7.2 SW 11 15 6 8 1010.8 - 0.0
17/10:00am 18.7 15.7 6.2 44 6.2 WSW 11 17 6 9 1011.1 - 0.0
17/09:30am 18.6 16.0 6.1 44 6.2 SW 9 17 5 9 1011.2 - 0.0
17/09:00am 16.8 14.6 6.0 49 5.3 WSW 7 13 4 7 1011.4 1011.2 -
17/08:30am 16.9 14.7 6.1 49 5.3 NE 7 11 4 6 1011.4 - -
17/08:00am 15.7 12.7 6.2 53 4.6 NE 11 13 6 7 1011.3 - -
17/07:30am 14.3 11.4 6.4 59 3.8 NE 11 13 6 7 1011.1 - -
17/07:00am 11.5 9.3 6.4 71 2.4 NE 7 9 4 5 1011.0 - -
17/06:30am 7.5 5.0 4.6 82 1.3 N 7 11 4 6 1010.7 - -
17/06:00am 6.3 3.1 3.1 80 1.3 NNE 9 11 5 6 1010.3 1010.1 -
17/05:30am 6.4 2.8 3.0 79 1.4 ENE 11 13 6 7 1009.8 - -
17/05:00am 6.8 3.3 3.6 80 1.4 NE 11 11 6 6 1009.4 - -
17/04:30am 6.8 3.2 3.2 78 1.5 ENE 11 13 6 7 1009.1 - -
17/04:00am 7.8 4.0 3.7 75 1.8 NE 13 15 7 8 1008.9 - -
17/03:30am 7.7 4.6 3.4 74 1.8 ENE 9 11 5 6 1008.8 - -
17/03:00am 8.4 4.9 3.7 72 2.0 ESE 11 13 6 7 1008.7 1008.5 -
17/02:30am 9.0 5.7 2.6 64 2.7 SE 9 11 5 6 1008.6 - -
17/02:00am 10.0 7.3 3.5 64 2.8 SE 7 9 4 5 1008.6 - -
17/01:30am 13.4 10.5 4.6 55 4.1 SSE 9 13 5 7 1009.0 - -
17/01:00am 14.4 10.5 5.2 54 4.3 SSE 15 19 8 10 1009.0 - -
17/12:30am 14.2 11.0 5.3 55 4.2 S 11 15 6 8 1009.3 - -
17/12:00am 15.4 12.0 5.9 53 4.6 SSW 13 19 7 10 1009.3 1009.1 -
 
Date/Time
CDT
Tmp

°C
App
Tmp
°C
Dew
Point
°C
Rel
Hum
%
Delta-T

°C
Wind Press
QNH
hPa
Press
MSL
hPa
Rain
since
9 am
mm
Dir
 
Spd
km/h
Gust
km/h
Spd
kts
Gust
kts
16/11:30pm 15.9 12.6 6.6 54 4.6 SSW 13 17 7 9 1009.2 - -
16/11:00pm 16.4 12.9 7.3 55 4.5 SSW 15 19 8 10 1009.3 - -
16/10:30pm 16.7 12.0 7.9 56 4.5 SSW 22 30 12 16 1009.2 - -
16/10:00pm 16.0 12.1 7.0 55 4.5 SW 17 22 9 12 1009.1 - -
16/09:30pm 16.5 11.7 7.2 54 4.6 SW 22 30 12 16 1008.8 - -
16/09:00pm 16.6 12.2 7.5 55 4.6 SW 20 33 11 18 1008.7 1008.5 -
16/08:30pm 17.2 12.2 6.4 49 5.3 SW 22 33 12 18 1008.2 - -
16/08:00pm 18.1 11.1 6.0 45 6.0 SW 32 43 17 23 1007.6 - -
16/07:30pm 18.9 12.3 6.1 43 6.3 SW 30 43 16 23 1007.3 - -
16/07:00pm 19.9 12.2 3.6 34 7.8 SW 33 44 18 24 1006.6 - -
16/06:30pm 20.3 12.3 5.5 38 7.3 SW 37 50 20 27 1006.2 - -
16/06:00pm 20.9 12.5 5.7 37 7.6 SW 39 54 21 29 1005.7 1005.6 -
16/05:35pm 21.3 13.8 6.4 38 7.6 SW 35 54 19 29 1005.6 - -
16/05:30pm 21.8 13.8 7.6 40 7.4 SW 39 54 21 29 1005.4 - -
16/05:14pm 21.3 13.9 6.8 39 7.4 SW 35 54 19 29 1005.3 - -
16/05:00pm 21.9 14.1 6.6 37 7.8 SW 37 54 20 29 1005.2 - -
16/04:47pm 21.9 14.1 6.6 37 7.8 WSW 37 56 20 30 1005.1 - -
16/04:30pm 21.8 13.7 7.2 39 7.5 SW 39 56 21 30 1005.1 - -
16/04:19pm 21.9 14.1 8.4 42 7.1 SW 39 57 21 31 1005.0 - -
16/04:00pm 22.1 14.8 10.3 47 6.5 SW 39 50 21 27 1005.0 - -
16/03:37pm 22.0 13.7 9.5 45 6.7 SW 43 61 23 33 1004.7 - -
16/03:30pm 23.3 14.9 9.7 42 7.4 WSW 44 59 24 32 1004.6 - -
16/03:00pm 24.9 17.3 7.5 33 9.2 WSW 37 56 20 30 1004.5 1004.4 -
16/02:47pm 24.3 15.5 9.5 39 8.1 W 46 69 25 37 1004.2 - -
16/02:30pm 24.8 14.6 7.0 32 9.3 W 50 65 27 35 1004.1 - -
16/02:00pm 23.8 15.5 10.1 42 7.5 W 44 63 24 34 1004.1 - -
16/01:50pm 23.6 15.5 10.6 44 7.2 W 44 65 24 35 1004.0 - -
16/01:30pm 23.3 16.0 11.7 48 6.5 W 41 52 22 28 1003.9 - -
16/01:00pm 25.3 17.7 11.8 43 7.7 W 43 56 23 30 1003.8 - -
16/12:43pm 23.9 16.1 11.2 44 7.1 W 43 61 23 33 1003.7 - -
16/12:30pm 24.1 16.0 10.7 43 7.5 W 44 57 24 31 1003.6 - -
16/12:00pm 24.1 15.5 8.1 36 8.5 W 43 54 23 29 1003.4 1003.3 -
16/10:00am 22.6 18.0 13.4 56 5.3 WNW 30 37 16 20 1002.7 - 0.0
16/09:30am 21.1 17.7 13.8 63 4.2 W 24 32 13 17 1002.7 - 0.0
16/09:00am 20.7 17.2 13.4 63 4.2 W 24 32 13 17 1002.8 1002.7 0.0
16/08:30am 19.1 15.9 11.9 63 4.0 W 20 26 11 14 1002.5 - 0.0
16/08:00am 17.9 16.3 11.7 67 3.4 NW 11 20 6 11 1001.7 - 0.0
16/07:30am 16.4 16.2 11.8 74 2.5 E 4 7 2 4 1001.7 - 0.0
16/07:00am 14.1 13.3 11.1 82 1.6 SE 6 7 3 4 1001.1 - 0.0
16/06:30am 11.4 9.6 9.5 88 1.0 ENE 9 11 5 6 1000.2 - 0.0
16/06:00am 11.3 9.1 9.4 88 1.0 NNE 11 13 6 7 1000.3 1000.1 0.0
16/05:30am 12.5 9.5 10.6 88 1.0 NNE 17 20 9 11 999.4 - 0.0
16/05:00am 12.5 9.1 10.7 89 0.9 N 19 22 10 12 1000.4 - 0.0
16/04:30am 11.6 8.4 9.9 89 0.9 N 17 19 9 10 1000.9 - 0.0
16/04:00am 11.4 8.1 9.7 89 0.9 N 17 19 9 10 1000.9 - 0.0
16/03:30am 12.1 9.0 10.2 88 1.0 N 17 20 9 11 1001.1 - 0.0
16/03:00am 11.8 8.6 9.9 88 1.0 N 17 20 9 11 1001.0 1000.8 0.0
16/02:30am 10.6 7.5 8.7 88 0.9 N 15 17 8 9 1001.0 - 0.0
16/02:00am 11.5 8.6 9.8 89 0.9 N 15 17 8 9 1001.0 - 0.0
16/01:30am 9.6 6.5 7.4 86 1.0 N 13 15 7 8 1001.1 - 0.0
16/01:00am 11.3 8.4 9.6 89 0.9 N 15 17 8 9 1001.9 - 0.0
16/12:30am 10.5 8.7 8.1 85 1.2 NNE 7 9 4 5 1002.1 - 0.0
16/12:00am 11.7 9.5 9.3 85 1.2 N 11 13 6 7 1002.5 1002.4 0.0
 
Date/Time
CDT
Tmp

°C
App
Tmp
°C
Dew
Point
°C
Rel
Hum
%
Delta-T

°C
Wind Press
QNH
hPa
Press
MSL
hPa
Rain
since
9 am
mm
Dir
 
Spd
km/h
Gust
km/h
Spd
kts
Gust
kts
15/11:30pm 12.8 10.4 10.2 84 1.3 N 13 13 7 7 1003.0 - 0.0
15/11:00pm 12.5 10.7 9.3 81 1.6 N 9 9 5 5 1003.3 - 0.0

Latest Capital City Observations: Canberra | Sydney | Melbourne | Brisbane | Adelaide | Perth | Hobart | Darwin

Other Formats:

Comma delimited format used in spreadsheet applications
http://www.bom.gov.au/fwo/IDS60901/IDS60901.95671.axf

JavaScript Object Notation format (JSON) in row-major order
http://www.bom.gov.au/fwo/IDS60901/IDS60901.95671.json